createdAt,value
2018-10-07T00:00:43.557Z,967.37
2018-10-07T00:01:43.547Z,967.40
2018-10-07T00:02:43.538Z,967.36
2018-10-07T00:03:43.530Z,967.37
2018-10-07T00:04:43.522Z,967.32
2018-10-07T00:05:43.531Z,967.35
2018-10-07T00:06:43.505Z,967.38
2018-10-07T00:07:43.492Z,967.39
2018-10-07T00:08:43.485Z,967.38
2018-10-07T00:09:43.474Z,967.39
2018-10-07T00:10:43.465Z,967.40
2018-10-07T00:11:43.456Z,967.41
2018-10-07T00:12:43.447Z,967.40
2018-10-07T00:13:43.444Z,967.41
2018-10-07T00:14:43.427Z,967.40
2018-10-07T00:15:43.418Z,967.40
2018-10-07T00:16:43.410Z,967.45
2018-10-07T00:17:43.400Z,967.47
2018-10-07T00:18:43.391Z,967.48
2018-10-07T00:19:43.382Z,967.46
2018-10-07T00:20:43.372Z,967.44
2018-10-07T00:21:43.363Z,967.48
2018-10-07T00:22:43.353Z,967.47
2018-10-07T00:23:43.344Z,967.49
2018-10-07T00:24:43.334Z,967.51
2018-10-07T00:25:43.325Z,967.50
2018-10-07T00:26:43.315Z,967.48
2018-10-07T00:27:43.306Z,967.56
2018-10-07T00:28:43.302Z,967.57
2018-10-07T00:29:43.289Z,967.59
2018-10-07T00:30:43.278Z,967.60
2018-10-07T00:31:43.270Z,967.59
2018-10-07T00:32:43.260Z,967.61
2018-10-07T00:33:43.250Z,967.65
2018-10-07T00:34:43.241Z,967.62
2018-10-07T00:35:43.236Z,967.66
2018-10-07T00:36:43.223Z,967.62
2018-10-07T00:37:43.214Z,967.57
2018-10-07T00:38:43.205Z,967.57
2018-10-07T00:39:43.196Z,967.56
2018-10-07T00:40:43.187Z,967.58
2018-10-07T00:41:43.180Z,967.56
2018-10-07T00:42:43.169Z,967.55
2018-10-07T00:43:43.163Z,967.54
2018-10-07T00:44:43.151Z,967.51
2018-10-07T00:45:43.141Z,967.50
2018-10-07T00:46:43.132Z,967.50
2018-10-07T00:47:43.122Z,967.47
2018-10-07T00:48:43.114Z,967.46
2018-10-07T00:49:43.105Z,967.49
2018-10-07T00:50:43.096Z,967.49
2018-10-07T00:51:43.087Z,967.53
2018-10-07T00:52:43.077Z,967.54
2018-10-07T00:53:43.068Z,967.52
2018-10-07T00:54:43.058Z,967.58
2018-10-07T00:55:43.053Z,967.55
2018-10-07T00:56:43.040Z,967.50
2018-10-07T00:57:43.031Z,967.45
2018-10-07T00:58:43.020Z,967.43
2018-10-07T00:59:43.012Z,967.44
2018-10-07T01:00:43.002Z,967.39
2018-10-07T01:01:42.994Z,967.41
2018-10-07T01:02:42.984Z,967.42
2018-10-07T01:03:42.975Z,967.42
2018-10-07T01:04:42.965Z,967.42
2018-10-07T01:05:42.956Z,967.47
2018-10-07T01:06:42.948Z,967.47
2018-10-07T01:07:42.936Z,967.49
2018-10-07T01:08:42.927Z,967.50
2018-10-07T01:09:42.917Z,967.50
2018-10-07T01:10:42.908Z,967.48
2018-10-07T01:11:42.898Z,967.48
2018-10-07T01:12:42.889Z,967.42
2018-10-07T01:13:42.883Z,967.43
2018-10-07T01:14:42.869Z,967.44
2018-10-07T01:15:42.860Z,967.45
2018-10-07T01:16:42.850Z,967.48
2018-10-07T01:17:42.841Z,967.47
2018-10-07T01:18:42.831Z,967.50
2018-10-07T01:19:42.823Z,967.47
2018-10-07T01:20:42.813Z,967.46
2018-10-07T01:21:42.803Z,967.44
2018-10-07T01:22:42.793Z,967.43
2018-10-07T01:23:42.784Z,967.44
2018-10-07T01:24:42.775Z,967.45
2018-10-07T01:25:42.773Z,967.50
2018-10-07T01:26:42.759Z,967.55
2018-10-07T01:27:42.746Z,967.52
2018-10-07T01:28:42.737Z,967.54
2018-10-07T01:29:42.727Z,967.53
2018-10-07T01:30:42.716Z,967.53
2018-10-07T01:31:42.711Z,967.52
2018-10-07T01:32:42.700Z,967.55
2018-10-07T01:33:42.690Z,967.55
2018-10-07T01:34:42.679Z,967.52
2018-10-07T01:35:42.670Z,967.54
2018-10-07T01:36:42.661Z,967.54
2018-10-07T01:37:42.652Z,967.58
2018-10-07T01:38:42.641Z,967.64
2018-10-07T01:39:42.634Z,967.65
2018-10-07T01:40:42.623Z,967.70
2018-10-07T01:41:42.613Z,967.75
2018-10-07T01:42:42.605Z,967.77
2018-10-07T01:43:42.595Z,967.80
2018-10-07T01:44:42.584Z,967.75
2018-10-07T01:45:42.578Z,967.74
2018-10-07T01:46:42.566Z,967.73
2018-10-07T01:47:42.556Z,967.74
2018-10-07T01:48:42.550Z,967.74
2018-10-07T01:49:42.540Z,967.71
2018-10-07T01:50:42.528Z,967.74
2018-10-07T01:51:42.518Z,967.73
2018-10-07T01:52:42.510Z,967.79
2018-10-07T01:53:42.501Z,967.79
2018-10-07T01:54:42.491Z,967.80
2018-10-07T01:55:42.481Z,967.80
2018-10-07T01:56:42.473Z,967.79
2018-10-07T01:57:42.462Z,967.78
2018-10-07T01:58:42.453Z,967.77
2018-10-07T01:59:42.443Z,967.77
2018-10-07T02:00:42.438Z,967.78
2018-10-07T02:01:42.424Z,967.81
2018-10-07T02:02:42.415Z,967.84
2018-10-07T02:03:42.404Z,967.86
2018-10-07T02:04:42.395Z,967.87
2018-10-07T02:05:42.387Z,967.88
2018-10-07T02:06:42.377Z,967.93
2018-10-07T02:07:42.367Z,967.92
2018-10-07T02:08:42.358Z,967.95
2018-10-07T02:09:42.349Z,967.96
2018-10-07T02:10:42.339Z,967.93
2018-10-07T02:11:42.328Z,967.94
2018-10-07T02:12:42.319Z,967.94
2018-10-07T02:13:42.424Z,967.98
2018-10-07T02:14:42.301Z,967.88
2018-10-07T02:15:42.290Z,967.95
2018-10-07T02:16:42.285Z,968.05
2018-10-07T02:17:42.275Z,968.06
2018-10-07T02:18:42.263Z,968.01
2018-10-07T02:19:42.257Z,968.05
2018-10-07T02:20:42.244Z,968.09
2018-10-07T02:21:42.235Z,968.05
2018-10-07T02:22:42.226Z,968.06
2018-10-07T02:23:42.217Z,968.08
2018-10-07T02:24:42.205Z,968.09
2018-10-07T02:25:42.195Z,968.05
2018-10-07T02:26:42.184Z,968.07
2018-10-07T02:27:42.176Z,968.11
2018-10-07T02:28:42.165Z,968.09
2018-10-07T02:29:42.156Z,968.13
2018-10-07T02:30:42.145Z,968.10
2018-10-07T02:31:42.137Z,968.10
2018-10-07T02:32:42.129Z,968.11
2018-10-07T02:33:42.120Z,968.11
2018-10-07T02:34:42.106Z,968.11
2018-10-07T02:35:42.097Z,968.09
2018-10-07T02:36:42.088Z,968.08
2018-10-07T02:37:42.078Z,968.06
2018-10-07T02:38:42.067Z,968.05
2018-10-07T02:39:42.057Z,968.10
2018-10-07T02:40:42.048Z,968.08
2018-10-07T02:41:42.042Z,968.14
2018-10-07T02:42:42.027Z,968.17
2018-10-07T02:43:42.018Z,968.16
2018-10-07T02:44:42.008Z,968.12
2018-10-07T02:45:41.998Z,968.14
2018-10-07T02:46:41.986Z,968.14
2018-10-07T02:47:41.980Z,968.14
2018-10-07T02:48:41.969Z,968.16
2018-10-07T02:49:41.958Z,968.19
2018-10-07T02:50:41.948Z,968.21
2018-10-07T02:51:41.941Z,968.24
2018-10-07T02:52:41.928Z,968.23
2018-10-07T02:53:41.924Z,968.27
2018-10-07T02:54:41.909Z,968.28
2018-10-07T02:55:41.898Z,968.33
2018-10-07T02:56:41.892Z,968.33
2018-10-07T02:57:41.880Z,968.32
2018-10-07T02:58:41.870Z,968.35
2018-10-07T02:59:41.858Z,968.37
2018-10-07T03:00:41.851Z,968.35
2018-10-07T03:01:41.841Z,968.34
2018-10-07T03:02:41.830Z,968.36
2018-10-07T03:03:41.820Z,968.36
2018-10-07T03:04:41.873Z,968.37
2018-10-07T03:05:41.804Z,968.33
2018-10-07T03:06:41.790Z,968.33
2018-10-07T03:07:41.781Z,968.33
2018-10-07T03:08:41.770Z,968.34
2018-10-07T03:09:41.763Z,968.28
2018-10-07T03:10:41.749Z,968.28
2018-10-07T03:11:41.739Z,968.32
2018-10-07T03:12:41.733Z,968.30
2018-10-07T03:13:41.720Z,968.33
2018-10-07T03:14:41.712Z,968.33
2018-10-07T03:15:41.699Z,968.28
2018-10-07T03:16:41.689Z,968.31
2018-10-07T03:17:41.680Z,968.29
2018-10-07T03:18:41.672Z,968.27
2018-10-07T03:19:41.659Z,968.28
2018-10-07T03:20:41.649Z,968.30
2018-10-07T03:21:41.640Z,968.32
2018-10-07T03:22:41.629Z,968.29
2018-10-07T03:23:41.619Z,968.30
2018-10-07T03:24:41.609Z,968.26
2018-10-07T03:25:41.600Z,968.23
2018-10-07T03:26:41.589Z,968.29
2018-10-07T03:27:41.585Z,968.32
2018-10-07T03:28:41.568Z,968.33
2018-10-07T03:29:41.563Z,968.34
2018-10-07T03:30:41.549Z,968.33
2018-10-07T03:31:41.542Z,968.30
2018-10-07T03:32:41.530Z,968.36
2018-10-07T03:33:41.521Z,968.32
2018-10-07T03:34:41.509Z,968.40
2018-10-07T03:35:41.500Z,968.43
2018-10-07T03:36:41.488Z,968.41
2018-10-07T03:37:41.479Z,968.49
2018-10-07T03:38:41.469Z,968.50
2018-10-07T03:39:41.460Z,968.52
2018-10-07T03:40:41.449Z,968.55
2018-10-07T03:41:41.442Z,968.57
2018-10-07T03:42:41.429Z,968.60
2018-10-07T03:43:41.419Z,968.58
2018-10-07T03:44:41.409Z,968.54
2018-10-07T03:45:41.399Z,968.56
2018-10-07T03:46:41.387Z,968.65
2018-10-07T03:47:41.377Z,968.58
2018-10-07T03:48:41.367Z,968.63
2018-10-07T03:49:41.357Z,968.63
2018-10-07T03:50:41.347Z,968.63
2018-10-07T03:51:41.338Z,968.65
2018-10-07T03:52:41.327Z,968.66
2018-10-07T03:53:41.317Z,968.70
2018-10-07T03:54:41.307Z,968.66
2018-10-07T03:55:41.296Z,968.69
2018-10-07T03:56:41.286Z,968.68
2018-10-07T03:57:41.277Z,968.69
2018-10-07T03:58:41.264Z,968.66
2018-10-07T03:59:41.255Z,968.71
2018-10-07T04:00:41.246Z,968.75
2018-10-07T04:01:41.236Z,968.74
2018-10-07T04:02:41.225Z,968.73
2018-10-07T04:03:41.215Z,968.74
2018-10-07T04:04:41.206Z,968.74
2018-10-07T04:05:41.196Z,968.75
2018-10-07T04:06:41.184Z,968.71
2018-10-07T04:07:41.174Z,968.72
2018-10-07T04:08:41.164Z,968.73
2018-10-07T04:09:41.157Z,968.75
2018-10-07T04:10:41.143Z,968.79
2018-10-07T04:11:41.133Z,968.78
2018-10-07T04:12:41.123Z,968.78
2018-10-07T04:13:41.113Z,968.80
2018-10-07T04:14:41.103Z,968.80
2018-10-07T04:15:41.102Z,968.75
2018-10-07T04:16:41.082Z,968.77
2018-10-07T04:17:41.110Z,968.76
2018-10-07T04:18:41.062Z,968.75
2018-10-07T04:19:41.052Z,968.82
2018-10-07T04:20:41.041Z,968.78
2018-10-07T04:21:41.033Z,968.78
2018-10-07T04:22:41.020Z,968.74
2018-10-07T04:23:41.011Z,968.75
2018-10-07T04:24:41.000Z,968.76
2018-10-07T04:25:40.991Z,968.77
2018-10-07T04:26:40.984Z,968.77
2018-10-07T04:27:40.972Z,968.74
2018-10-07T04:28:40.959Z,968.73
2018-10-07T04:29:40.949Z,968.74
2018-10-07T04:30:40.939Z,968.71
2018-10-07T04:31:40.927Z,968.76
2018-10-07T04:32:40.920Z,968.73
2018-10-07T04:33:40.908Z,968.76
2018-10-07T04:34:40.897Z,968.74
2018-10-07T04:35:40.888Z,968.73
2018-10-07T04:36:40.877Z,968.70
2018-10-07T04:37:40.930Z,968.74
2018-10-07T04:38:40.859Z,968.72
2018-10-07T04:39:40.911Z,968.73
2018-10-07T04:40:40.836Z,968.77
2018-10-07T04:41:40.825Z,968.84
2018-10-07T04:42:40.814Z,968.84
2018-10-07T04:43:40.804Z,968.80
2018-10-07T04:44:40.794Z,968.82
2018-10-07T04:45:40.785Z,968.85
2018-10-07T04:46:40.773Z,968.89
2018-10-07T04:47:40.763Z,968.91
2018-10-07T04:48:40.752Z,968.86
2018-10-07T04:49:40.742Z,968.88
2018-10-07T04:50:40.731Z,968.84
2018-10-07T04:51:40.722Z,968.87
2018-10-07T04:52:40.713Z,968.86
2018-10-07T04:53:40.702Z,968.86
2018-10-07T04:54:40.691Z,968.86
2018-10-07T04:55:40.679Z,968.88
2018-10-07T04:56:40.669Z,968.87
2018-10-07T04:57:40.659Z,968.86
2018-10-07T04:58:40.647Z,968.89
2018-10-07T04:59:40.641Z,968.88
2018-10-07T05:00:40.627Z,968.87
2018-10-07T05:01:40.618Z,968.87
2018-10-07T05:02:40.606Z,968.89
2018-10-07T05:03:40.596Z,968.88
2018-10-07T05:04:40.586Z,968.87
2018-10-07T05:05:40.576Z,968.88
2018-10-07T05:06:40.564Z,968.89
2018-10-07T05:07:40.554Z,968.89
2018-10-07T05:08:40.547Z,968.89
2018-10-07T05:09:40.534Z,968.91
2018-10-07T05:10:40.522Z,968.91
2018-10-07T05:11:40.512Z,968.95
2018-10-07T05:12:40.644Z,968.93
2018-10-07T05:13:40.492Z,968.96
2018-10-07T05:14:40.479Z,968.97
2018-10-07T05:15:40.470Z,968.92
2018-10-07T05:16:40.460Z,968.89
2018-10-07T05:17:40.449Z,968.92
2018-10-07T05:18:40.438Z,968.91
2018-10-07T05:19:40.428Z,968.93
2018-10-07T05:20:40.420Z,968.92
2018-10-07T05:21:40.407Z,968.93
2018-10-07T05:22:40.396Z,968.92
2018-10-07T05:23:40.385Z,968.93
2018-10-07T05:24:40.375Z,968.98
2018-10-07T05:25:40.364Z,969.02
2018-10-07T05:26:40.354Z,969.03
2018-10-07T05:27:40.344Z,969.03
2018-10-07T05:28:40.332Z,969.02
2018-10-07T05:29:40.326Z,969.01
2018-10-07T05:30:40.311Z,969.05
2018-10-07T05:31:40.302Z,969.06
2018-10-07T05:32:40.291Z,969.05
2018-10-07T05:33:40.280Z,969.05
2018-10-07T05:34:40.269Z,969.04
2018-10-07T05:35:40.260Z,969.05
2018-10-07T05:36:40.249Z,969.07
2018-10-07T05:37:40.239Z,969.05
2018-10-07T05:38:40.228Z,969.05
2018-10-07T05:39:40.221Z,969.06
2018-10-07T05:40:40.207Z,969.09
2018-10-07T05:41:40.197Z,969.07
2018-10-07T05:42:40.185Z,969.05
2018-10-07T05:43:40.178Z,969.07
2018-10-07T05:44:40.222Z,969.04
2018-10-07T05:45:40.156Z,969.09
2018-10-07T05:46:40.143Z,969.05
2018-10-07T05:47:40.134Z,969.07
2018-10-07T05:48:40.123Z,969.05
2018-10-07T05:49:40.113Z,969.03
2018-10-07T05:50:40.101Z,969.08
2018-10-07T05:51:40.091Z,969.08
2018-10-07T05:52:40.080Z,969.08
2018-10-07T05:53:40.071Z,969.11
2018-10-07T05:54:40.060Z,969.11
2018-10-07T05:55:40.053Z,969.09
2018-10-07T05:56:40.038Z,969.12
2018-10-07T05:57:40.029Z,969.09
2018-10-07T05:58:40.017Z,969.14
2018-10-07T05:59:40.007Z,969.17
2018-10-07T06:00:39.997Z,969.19
2018-10-07T06:01:39.997Z,969.18
2018-10-07T06:02:39.976Z,969.20
2018-10-07T06:03:39.964Z,969.18
2018-10-07T06:04:39.954Z,969.20
2018-10-07T06:05:39.943Z,969.23
2018-10-07T06:06:39.932Z,969.25
2018-10-07T06:07:39.923Z,969.25
2018-10-07T06:08:39.912Z,969.24
2018-10-07T06:09:39.901Z,969.25
2018-10-07T06:10:39.891Z,969.28
2018-10-07T06:11:39.880Z,969.29
2018-10-07T06:12:39.870Z,969.29
2018-10-07T06:13:39.860Z,969.27
2018-10-07T06:14:39.898Z,969.30
2018-10-07T06:15:39.838Z,969.28
2018-10-07T06:16:39.830Z,969.30
2018-10-07T06:17:39.818Z,969.26
2018-10-07T06:18:39.807Z,969.31
2018-10-07T06:19:39.797Z,969.34
2018-10-07T06:20:39.786Z,969.29
2018-10-07T06:21:39.851Z,969.29
2018-10-07T06:22:39.765Z,969.31
2018-10-07T06:23:39.754Z,969.32
2018-10-07T06:24:39.745Z,969.37
2018-10-07T06:25:39.742Z,969.36
2018-10-07T06:26:39.725Z,969.37
2018-10-07T06:27:39.715Z,969.40
2018-10-07T06:28:39.707Z,969.39
2018-10-07T06:29:39.725Z,969.42
2018-10-07T06:30:39.682Z,969.43
2018-10-07T06:31:39.672Z,969.43
2018-10-07T06:32:39.663Z,969.41
2018-10-07T06:33:39.653Z,969.48
2018-10-07T06:34:39.641Z,969.46
2018-10-07T06:35:39.637Z,969.47
2018-10-07T06:36:39.620Z,969.46
2018-10-07T06:37:39.614Z,969.53
2018-10-07T06:38:39.613Z,969.54
2018-10-07T06:39:39.593Z,969.55
2018-10-07T06:40:39.580Z,969.60
2018-10-07T06:41:39.570Z,969.62
2018-10-07T06:42:39.559Z,969.63
2018-10-07T06:43:39.549Z,969.67
2018-10-07T06:44:39.540Z,969.65
2018-10-07T06:45:39.539Z,969.70
2018-10-07T06:46:39.518Z,969.64
2018-10-07T06:47:39.509Z,969.66
2018-10-07T06:48:39.500Z,969.63
2018-10-07T06:49:39.492Z,969.61
2018-10-07T06:50:39.488Z,969.59
2018-10-07T06:51:39.469Z,969.57
2018-10-07T06:52:39.459Z,969.60
2018-10-07T06:53:39.450Z,969.58
2018-10-07T06:54:39.439Z,969.61
2018-10-07T06:55:39.429Z,969.61
2018-10-07T06:56:39.420Z,969.67
2018-10-07T06:57:39.410Z,969.68
2018-10-07T06:58:39.400Z,969.74
2018-10-07T06:59:39.462Z,969.73
2018-10-07T07:00:39.381Z,969.80
2018-10-07T07:01:39.372Z,969.79
2018-10-07T07:02:39.365Z,969.80
2018-10-07T07:03:39.352Z,969.84
2018-10-07T07:04:39.342Z,969.86
2018-10-07T07:05:39.340Z,969.91
2018-10-07T07:06:39.328Z,969.89
2018-10-07T07:07:39.314Z,969.90
2018-10-07T07:08:39.306Z,969.92
2018-10-07T07:09:39.297Z,969.92
2018-10-07T07:10:39.289Z,969.91
2018-10-07T07:11:39.278Z,969.90
2018-10-07T07:12:39.309Z,969.91
2018-10-07T07:13:39.261Z,969.93
2018-10-07T07:14:39.251Z,969.92
2018-10-07T07:15:39.241Z,969.93
2018-10-07T07:16:39.233Z,969.94
2018-10-07T07:17:39.223Z,969.90
2018-10-07T07:18:39.213Z,969.92
2018-10-07T07:19:39.255Z,969.88
2018-10-07T07:20:39.196Z,969.94
2018-10-07T07:21:39.188Z,969.90
2018-10-07T07:22:39.192Z,969.88
2018-10-07T07:23:39.170Z,969.89
2018-10-07T07:24:39.161Z,969.91
2018-10-07T07:25:39.153Z,969.87
2018-10-07T07:26:39.149Z,969.88
2018-10-07T07:27:39.136Z,969.87
2018-10-07T07:28:39.128Z,969.90
2018-10-07T07:29:39.119Z,969.90
2018-10-07T07:30:39.110Z,969.90
2018-10-07T07:31:39.101Z,969.91
2018-10-07T07:32:39.093Z,969.91
2018-10-07T07:33:39.086Z,969.94
2018-10-07T07:34:39.076Z,969.95
2018-10-07T07:35:39.068Z,969.91
2018-10-07T07:36:39.107Z,969.94
2018-10-07T07:37:39.052Z,969.97
2018-10-07T07:38:39.043Z,969.99
2018-10-07T07:39:39.036Z,970.00
2018-10-07T07:40:39.028Z,969.98
2018-10-07T07:41:39.020Z,970.01
2018-10-07T07:42:39.012Z,970.03
2018-10-07T07:43:39.003Z,970.04
2018-10-07T07:44:38.995Z,970.06
2018-10-07T07:45:38.987Z,970.07
2018-10-07T07:46:38.979Z,970.09
2018-10-07T07:47:38.971Z,970.12
2018-10-07T07:48:38.965Z,970.13
2018-10-07T07:49:38.956Z,970.15
2018-10-07T07:50:38.948Z,970.18
2018-10-07T07:51:38.942Z,970.15
2018-10-07T07:52:38.933Z,970.14
2018-10-07T07:53:38.925Z,970.10
2018-10-07T07:54:38.917Z,970.09
2018-10-07T07:55:38.909Z,970.13
2018-10-07T07:56:38.901Z,970.11
2018-10-07T07:57:38.893Z,970.09
2018-10-07T07:58:38.886Z,970.05
2018-10-07T07:59:38.879Z,970.11
2018-10-07T08:00:38.870Z,970.11
2018-10-07T08:01:38.864Z,970.11
2018-10-07T08:02:38.854Z,970.11
2018-10-07T08:03:38.851Z,970.12
2018-10-07T08:04:38.841Z,970.08
2018-10-07T08:05:38.832Z,970.14
2018-10-07T08:06:38.824Z,970.11
2018-10-07T08:07:38.819Z,970.17
2018-10-07T08:08:38.857Z,970.13
2018-10-07T08:09:38.802Z,970.14
2018-10-07T08:10:38.797Z,970.12
2018-10-07T08:11:38.787Z,970.14
2018-10-07T08:12:38.780Z,970.13
2018-10-07T08:13:38.773Z,970.14
2018-10-07T08:14:38.765Z,970.17
2018-10-07T08:15:38.759Z,970.21
2018-10-07T08:16:38.754Z,970.21
2018-10-07T08:17:38.797Z,970.19
2018-10-07T08:18:38.734Z,970.22
2018-10-07T08:19:38.728Z,970.23
2018-10-07T08:20:38.725Z,970.24
2018-10-07T08:21:38.714Z,970.27
2018-10-07T08:22:38.706Z,970.26
2018-10-07T08:23:38.704Z,970.25
2018-10-07T08:24:38.695Z,970.28
2018-10-07T08:25:38.690Z,970.25
2018-10-07T08:26:38.678Z,970.25
2018-10-07T08:27:38.670Z,970.25
2018-10-07T08:28:38.663Z,970.24
2018-10-07T08:29:38.722Z,970.24
2018-10-07T08:30:38.648Z,970.24
2018-10-07T08:31:38.645Z,970.25
2018-10-07T08:32:38.634Z,970.24
2018-10-07T08:33:38.628Z,970.29
2018-10-07T08:34:38.626Z,970.26
2018-10-07T08:35:38.612Z,970.25
2018-10-07T08:36:38.606Z,970.20
2018-10-07T08:37:38.599Z,970.26
2018-10-07T08:38:38.590Z,970.29
2018-10-07T08:39:38.585Z,970.32
2018-10-07T08:40:38.578Z,970.36
2018-10-07T08:41:38.570Z,970.33
2018-10-07T08:42:38.562Z,970.35
2018-10-07T08:43:38.556Z,970.34
2018-10-07T08:44:38.549Z,970.38
2018-10-07T08:45:38.545Z,970.39
2018-10-07T08:46:38.539Z,970.35
2018-10-07T08:47:38.528Z,970.37
2018-10-07T08:48:38.521Z,970.33
2018-10-07T08:49:38.549Z,970.33
2018-10-07T08:50:38.509Z,970.35
2018-10-07T08:51:38.501Z,970.32
2018-10-07T08:52:38.497Z,970.30
2018-10-07T08:53:38.488Z,970.27
2018-10-07T08:54:38.480Z,970.33
2018-10-07T08:55:38.475Z,970.32
2018-10-07T08:56:38.468Z,970.33
2018-10-07T08:57:38.461Z,970.33
2018-10-07T08:58:38.454Z,970.34
2018-10-07T08:59:38.447Z,970.29
2018-10-07T09:00:38.441Z,970.29
2018-10-07T09:01:38.434Z,970.28
2018-10-07T09:02:38.427Z,970.31
2018-10-07T09:03:38.423Z,970.25
2018-10-07T09:04:38.415Z,970.21
2018-10-07T09:05:38.408Z,970.22
2018-10-07T09:06:38.401Z,970.21
2018-10-07T09:07:38.447Z,970.22
2018-10-07T09:08:38.398Z,970.21
2018-10-07T09:09:38.381Z,970.18
2018-10-07T09:10:38.374Z,970.15
2018-10-07T09:11:38.368Z,970.15
2018-10-07T09:12:38.361Z,970.16
2018-10-07T09:13:38.356Z,970.15
2018-10-07T09:14:38.493Z,970.15
2018-10-07T09:15:38.342Z,970.21
2018-10-07T09:16:38.336Z,970.18
2018-10-07T09:17:38.330Z,970.20
2018-10-07T09:18:38.322Z,970.21
2018-10-07T09:19:38.317Z,970.21
2018-10-07T09:20:38.311Z,970.23
2018-10-07T09:21:38.304Z,970.18
2018-10-07T09:22:38.298Z,970.21
2018-10-07T09:23:38.302Z,970.23
2018-10-07T09:24:38.286Z,970.24
2018-10-07T09:25:38.279Z,970.26
2018-10-07T09:26:38.272Z,970.26
2018-10-07T09:27:38.341Z,970.30
2018-10-07T09:28:38.260Z,970.27
2018-10-07T09:29:38.254Z,970.30
2018-10-07T09:30:38.247Z,970.35
2018-10-07T09:31:38.241Z,970.39
2018-10-07T09:32:38.380Z,970.33
2018-10-07T09:33:38.229Z,970.41
2018-10-07T09:34:38.222Z,970.42
2018-10-07T09:35:38.216Z,970.42
2018-10-07T09:36:38.282Z,970.38
2018-10-07T09:37:38.207Z,970.45
2018-10-07T09:38:38.196Z,970.42
2018-10-07T09:39:38.240Z,970.41
2018-10-07T09:40:38.186Z,970.40
2018-10-07T09:41:38.181Z,970.39
2018-10-07T09:42:38.173Z,970.39
2018-10-07T09:43:38.167Z,970.44
2018-10-07T09:44:38.161Z,970.41
2018-10-07T09:45:38.154Z,970.40
2018-10-07T09:46:38.148Z,970.36
2018-10-07T09:47:38.141Z,970.36
2018-10-07T09:48:38.136Z,970.35
2018-10-07T09:49:38.133Z,970.35
2018-10-07T09:50:38.122Z,970.33
2018-10-07T09:51:38.115Z,970.33
2018-10-07T09:52:38.109Z,970.29
2018-10-07T09:53:38.103Z,970.34
2018-10-07T09:54:38.096Z,970.26
2018-10-07T09:55:38.090Z,970.28
2018-10-07T09:56:38.084Z,970.26
2018-10-07T09:57:38.077Z,970.27
2018-10-07T09:58:38.071Z,970.28
2018-10-07T09:59:38.064Z,970.26
2018-10-07T10:00:38.058Z,970.26
2018-10-07T10:01:38.056Z,970.30
2018-10-07T10:02:38.045Z,970.27
2018-10-07T10:03:38.039Z,970.31
2018-10-07T10:04:38.114Z,970.29
2018-10-07T10:05:38.031Z,970.34
2018-10-07T10:06:38.019Z,970.34
2018-10-07T10:07:38.013Z,970.32
2018-10-07T10:08:38.010Z,970.31
2018-10-07T10:09:38.006Z,970.29
2018-10-07T10:10:37.994Z,970.27
2018-10-07T10:11:37.988Z,970.33
2018-10-07T10:12:37.983Z,970.30
2018-10-07T10:13:37.977Z,970.29
2018-10-07T10:14:37.970Z,970.32
2018-10-07T10:15:37.964Z,970.28
2018-10-07T10:16:37.957Z,970.33
2018-10-07T10:17:38.019Z,970.33
2018-10-07T10:18:37.945Z,970.33
2018-10-07T10:19:37.999Z,970.35
2018-10-07T10:20:37.934Z,970.37
2018-10-07T10:21:37.928Z,970.38
2018-10-07T10:22:37.922Z,970.32
2018-10-07T10:23:37.916Z,970.35
2018-10-07T10:24:37.910Z,970.36
2018-10-07T10:25:37.905Z,970.35
2018-10-07T10:26:37.901Z,970.40
2018-10-07T10:27:37.893Z,970.41
2018-10-07T10:28:37.887Z,970.41
2018-10-07T10:29:37.883Z,970.40
2018-10-07T10:30:37.876Z,970.43
2018-10-07T10:31:37.871Z,970.42
2018-10-07T10:32:37.866Z,970.41
2018-10-07T10:33:37.860Z,970.43
2018-10-07T10:34:37.853Z,970.40
2018-10-07T10:35:37.848Z,970.40
2018-10-07T10:36:37.850Z,970.36
2018-10-07T10:37:37.839Z,970.34
2018-10-07T10:38:37.831Z,970.33
2018-10-07T10:39:37.913Z,970.30
2018-10-07T10:40:37.821Z,970.27
2018-10-07T10:41:37.815Z,970.31
2018-10-07T10:42:37.810Z,970.32
2018-10-07T10:43:37.804Z,970.32
2018-10-07T10:44:37.800Z,970.32
2018-10-07T10:45:37.795Z,970.30
2018-10-07T10:46:37.788Z,970.33
2018-10-07T10:47:37.785Z,970.32
2018-10-07T10:48:37.781Z,970.33
2018-10-07T10:49:37.773Z,970.33
2018-10-07T10:50:37.767Z,970.32
2018-10-07T10:51:37.763Z,970.33
2018-10-07T10:52:37.759Z,970.31
2018-10-07T10:53:37.754Z,970.32
2018-10-07T10:54:37.747Z,970.34
2018-10-07T10:55:37.744Z,970.37
2018-10-07T10:56:37.737Z,970.38
2018-10-07T10:57:37.734Z,970.38
2018-10-07T10:58:37.727Z,970.33
2018-10-07T10:59:37.722Z,970.34
2018-10-07T11:00:37.721Z,970.37
2018-10-07T11:01:37.714Z,970.35
2018-10-07T11:02:37.708Z,970.37
2018-10-07T11:03:37.703Z,970.31
2018-10-07T11:04:37.799Z,970.33
2018-10-07T11:05:37.694Z,970.35
2018-10-07T11:06:37.689Z,970.33
2018-10-07T11:07:37.685Z,970.33
2018-10-07T11:08:37.680Z,970.36
2018-10-07T11:09:37.676Z,970.33
2018-10-07T11:10:37.670Z,970.30
2018-10-07T11:11:37.666Z,970.30
2018-10-07T11:12:37.661Z,970.26
2018-10-07T11:13:37.668Z,970.27
2018-10-07T11:14:37.652Z,970.29
2018-10-07T11:15:37.673Z,970.28
2018-10-07T11:16:37.643Z,970.23
2018-10-07T11:17:37.639Z,970.27
2018-10-07T11:18:37.634Z,970.25
2018-10-07T11:19:37.703Z,970.21
2018-10-07T11:20:37.625Z,970.23
2018-10-07T11:21:37.621Z,970.21
2018-10-07T11:22:37.616Z,970.23
2018-10-07T11:23:37.611Z,970.14
2018-10-07T11:24:37.607Z,970.15
2018-10-07T11:25:37.602Z,970.15
2018-10-07T11:26:37.598Z,970.12
2018-10-07T11:27:37.593Z,970.12
2018-10-07T11:28:37.589Z,970.15
2018-10-07T11:29:37.585Z,970.15
2018-10-07T11:30:37.580Z,970.16
2018-10-07T11:31:37.575Z,970.17
2018-10-07T11:32:37.571Z,970.15
2018-10-07T11:33:37.567Z,970.14
2018-10-07T11:34:37.592Z,970.11
2018-10-07T11:35:37.556Z,970.07
2018-10-07T11:36:37.552Z,970.11
2018-10-07T11:37:37.547Z,970.06
2018-10-07T11:38:37.542Z,969.89
2018-10-07T11:39:37.541Z,970.09
2018-10-07T11:40:37.547Z,970.12
2018-10-07T11:41:37.527Z,970.00
2018-10-07T11:42:37.525Z,969.95
2018-10-07T11:43:37.517Z,969.98
2018-10-07T11:44:37.513Z,969.96
2018-10-07T11:45:37.508Z,969.92
2018-10-07T11:46:37.502Z,969.90
2018-10-07T11:47:37.496Z,970.00
2018-10-07T11:48:37.490Z,970.07
2018-10-07T11:49:37.485Z,969.96
2018-10-07T11:50:37.488Z,970.02
2018-10-07T11:51:37.475Z,970.03
2018-10-07T11:52:37.524Z,970.02
2018-10-07T11:53:37.464Z,970.02
2018-10-07T11:54:37.459Z,969.98
2018-10-07T11:55:37.455Z,970.02
2018-10-07T11:56:37.449Z,969.99
2018-10-07T11:57:37.443Z,970.00
2018-10-07T11:58:37.437Z,970.01
2018-10-07T11:59:37.433Z,969.96
2018-10-07T12:00:37.427Z,969.91
2018-10-07T12:01:37.422Z,969.84
2018-10-07T12:02:37.419Z,969.85
2018-10-07T12:03:37.412Z,969.92
2018-10-07T12:04:37.407Z,969.96
2018-10-07T12:05:37.404Z,969.90
2018-10-07T12:06:37.397Z,969.83
2018-10-07T12:07:37.393Z,969.83
2018-10-07T12:08:37.488Z,969.83
2018-10-07T12:09:37.383Z,969.85
2018-10-07T12:10:37.380Z,969.77
2018-10-07T12:11:37.372Z,969.78
2018-10-07T12:12:37.368Z,969.81
2018-10-07T12:13:37.364Z,969.81
2018-10-07T12:14:37.356Z,969.95
2018-10-07T12:15:37.352Z,969.82
2018-10-07T12:16:37.348Z,969.95
2018-10-07T12:17:37.350Z,969.83
2018-10-07T12:18:37.338Z,969.86
2018-10-07T12:19:37.332Z,969.86
2018-10-07T12:20:37.327Z,969.81
2018-10-07T12:21:37.324Z,969.85
2018-10-07T12:22:37.317Z,969.85
2018-10-07T12:23:37.312Z,969.88
2018-10-07T12:24:37.307Z,969.86
2018-10-07T12:25:37.303Z,969.87
2018-10-07T12:26:37.297Z,969.88
2018-10-07T12:27:37.293Z,969.89
2018-10-07T12:28:37.289Z,969.88